Time;durP1;ratioP1;P1;durP2;ratioP2;P2;SDS_P1;SDS_P2;PMS_P1;PMS_P2;Temp;Humidity;BMP_temperature;BMP_pressure;BME280_temperature;BME280_humidity;BME280_pressure;Samples;Min_cycle;Max_cycle;Signal;HPM_P1;HPM_P2
2023/10/07 00:00:52;;;;;;;19.42;9.40;;;;;;;;;;5002205;28;20293;-83
2023/10/07 00:03:21;;;;;;;17.73;9.65;;;;;;;;;;5001106;28;20329;-84
2023/10/07 00:05:50;;;;;;;14.80;9.05;;;;;;;;;;5002057;28;20266;-83
2023/10/07 00:08:20;;;;;;;17.25;9.48;;;;;;;;;;5001942;28;20261;-84
2023/10/07 00:10:49;;;;;;;15.60;8.82;;;;;;;;;;5001087;28;20266;-84
2023/10/07 00:13:20;;;;;;;13.80;8.05;;;;;;;;;;4979932;28;20293;-84
2023/10/07 00:15:51;;;;;;;20.08;9.50;;;;;;;;;;4969779;28;20332;-85
2023/10/07 00:18:22;;;;;;;13.63;8.30;;;;;;;;;;4985714;28;20246;-84
2023/10/07 00:20:53;;;;;;;14.40;9.45;;;;;;;;;;4986187;28;20246;-84
2023/10/07 00:23:22;;;;;;;15.63;8.02;;;;;;;;;;5002748;28;20317;-85
2023/10/07 00:25:51;;;;;;;16.58;10.02;;;;;;;;;;4974982;28;20277;-84
2023/10/07 00:28:28;;;;;;;17.38;8.98;;;;;;;;;;4981779;28;20267;-84
2023/10/07 00:31:02;;;;;;;16.90;8.88;;;;;;;;;;4982680;28;20278;-85
2023/10/07 00:33:45;;;;;;;15.20;7.90;;;;;;;;;;4964668;28;20260;-84
2023/10/07 00:36:16;;;;;;;18.27;9.48;;;;;;;;;;4965797;28;20290;-83
2023/10/07 00:38:45;;;;;;;14.95;8.18;;;;;;;;;;4982520;28;20247;-83
2023/10/07 00:41:18;;;;;;;12.60;7.22;;;;;;;;;;4982288;28;20206;-83
2023/10/07 00:43:53;;;;;;;14.77;8.77;;;;;;;;;;4949606;28;20833;-83
2023/10/07 00:46:28;;;;;;;14.68;7.88;;;;;;;;;;4966064;28;20270;-86
2023/10/07 00:48:59;;;;;;;13.82;7.80;;;;;;;;;;4982725;28;20622;-87
2023/10/07 00:51:34;;;;;;;14.63;8.52;;;;;;;;;;4984376;28;20202;-85
2023/10/07 00:54:16;;;;;;;17.08;8.77;;;;;;;;;;4985200;28;20277;-85
2023/10/07 00:56:52;;;;;;;12.05;7.43;;;;;;;;;;4985396;28;20269;-85
2023/10/07 00:59:24;;;;;;;15.52;7.55;;;;;;;;;;4974473;28;20648;-85
2023/10/07 01:01:55;;;;;;;10.95;7.05;;;;;;;;;;5006289;28;20270;-86
2023/10/07 01:04:24;;;;;;;12.00;7.20;;;;;;;;;;4987047;28;20305;-85
2023/10/07 01:07:02;;;;;;;16.42;7.22;;;;;;;;;;4971653;28;20314;-85
2023/10/07 01:09:31;;;;;;;18.33;8.20;;;;;;;;;;5006184;28;20270;-85
2023/10/07 01:11:59;;;;;;;13.73;8.13;;;;;;;;;;4987457;28;20725;-89
2023/10/07 01:14:33;;;;;;;14.20;7.75;;;;;;;;;;4987462;28;20289;-84
2023/10/07 01:17:03;;;;;;;14.13;7.85;;;;;;;;;;4986419;28;20354;-85
2023/10/07 01:19:36;;;;;;;14.35;7.70;;;;;;;;;;4972212;28;20275;-85
2023/10/07 01:22:12;;;;;;;14.75;8.00;;;;;;;;;;4988005;28;20274;-86
2023/10/07 01:24:49;;;;;;;14.07;8.07;;;;;;;;;;4988513;28;20206;-85
2023/10/07 01:27:35;;;;;;;15.13;8.50;;;;;;;;;;4988913;28;20246;-88
2023/10/07 01:30:13;;;;;;;16.85;7.95;;;;;;;;;;5007493;28;20223;-84
2023/10/07 01:32:49;;;;;;;17.30;8.23;;;;;;;;;;4974464;28;20234;-86
2023/10/07 01:35:25;;;;;;;21.13;8.35;;;;;;;;;;4975582;28;20184;-85
2023/10/07 01:37:59;;;;;;;14.82;7.20;;;;;;;;;;4975424;28;20282;-85
2023/10/07 01:40:34;;;;;;;11.52;8.40;;;;;;;;;;5008965;28;20246;-85
2023/10/07 01:43:04;;;;;;;17.67;8.27;;;;;;;;;;5007989;28;20282;-85
2023/10/07 01:45:39;;;;;;;12.15;7.68;;;;;;;;;;4991329;28;20226;-86
2023/10/07 01:48:08;;;;;;;14.23;7.78;;;;;;;;;;4974722;28;20230;-86
2023/10/07 01:50:40;;;;;;;15.10;8.13;;;;;;;;;;5011551;28;20200;-90
2023/10/07 01:53:11;;;;;;;12.32;8.40;;;;;;;;;;4985322;28;20171;-89
2023/10/07 01:55:42;;;;;;;16.15;7.85;;;;;;;;;;4995732;28;20215;-85
2023/10/07 01:58:13;;;;;;;16.10;8.18;;;;;;;;;;4990864;28;20349;-84
2023/10/07 02:00:48;;;;;;;14.90;8.20;;;;;;;;;;4990060;28;20242;-85
2023/10/07 02:03:22;;;;;;;12.95;7.97;;;;;;;;;;4973017;28;20255;-85
2023/10/07 02:05:52;;;;;;;21.63;8.60;;;;;;;;;;5006330;28;20282;-85
2023/10/07 02:08:22;;;;;;;14.75;8.10;;;;;;;;;;4989341;28;20282;-86
2023/10/07 02:10:52;;;;;;;19.75;8.32;;;;;;;;;;4973641;28;20258;-88
2023/10/07 02:13:21;;;;;;;16.92;9.02;;;;;;;;;;4989073;28;20259;-87
2023/10/07 02:15:51;;;;;;;14.95;8.93;;;;;;;;;;4974097;28;20338;-85
2023/10/07 02:18:21;;;;;;;17.13;8.57;;;;;;;;;;4991911;28;20262;-85
2023/10/07 02:20:52;;;;;;;14.30;8.55;;;;;;;;;;4981692;28;20226;-84
2023/10/07 02:23:27;;;;;;;21.08;9.27;;;;;;;;;;4990386;28;20561;-84
2023/10/07 02:25:59;;;;;;;13.88;7.63;;;;;;;;;;5005099;28;20197;-84
2023/10/07 02:28:32;;;;;;;18.40;8.02;;;;;;;;;;4989497;28;20639;-84
2023/10/07 02:31:01;;;;;;;12.27;8.13;;;;;;;;;;5005946;28;20398;-84
2023/10/07 02:33:41;;;;;;;13.80;8.07;;;;;;;;;;5007594;28;20205;-85
2023/10/07 02:36:21;;;;;;;16.15;8.52;;;;;;;;;;5005640;28;20269;-85
2023/10/07 02:38:52;;;;;;;15.32;8.40;;;;;;;;;;4989266;28;20345;-85
2023/10/07 02:41:24;;;;;;;16.90;7.70;;;;;;;;;;5006764;28;20246;-84
2023/10/07 02:43:52;;;;;;;17.65;8.02;;;;;;;;;;4992722;28;20235;-89
2023/10/07 02:46:33;;;;;;;19.40;7.78;;;;;;;;;;5012712;28;20213;-88
2023/10/07 02:49:06;;;;;;;15.77;8.60;;;;;;;;;;4978545;28;20214;-88
2023/10/07 02:51:39;;;;;;;11.93;7.45;;;;;;;;;;5002297;28;20187;-88
2023/10/07 02:54:16;;;;;;;15.38;7.90;;;;;;;;;;5010758;28;20183;-88
2023/10/07 02:56:54;;;;;;;14.18;8.23;;;;;;;;;;4980381;28;20268;-88
2023/10/07 02:59:29;;;;;;;12.90;8.07;;;;;;;;;;4975897;28;20195;-88
2023/10/07 03:02:18;;;;;;;16.65;8.75;;;;;;;;;;4992640;28;20190;-89
2023/10/07 03:05:05;;;;;;;15.80;8.15;;;;;;;;;;4975932;28;20218;-88
2023/10/07 03:07:34;;;;;;;19.27;9.10;;;;;;;;;;4977414;28;20169;-89
2023/10/07 03:10:16;;;;;;;14.90;7.72;;;;;;;;;;4992911;28;20211;-89
2023/10/07 03:12:49;;;;;;;11.15;6.90;;;;;;;;;;4992350;28;20199;-88
2023/10/07 03:15:39;;;;;;;22.30;9.18;;;;;;;;;;4992407;28;20203;-89
2023/10/07 03:18:20;;;;;;;12.60;7.57;;;;;;;;;;4977846;28;20222;-89
2023/10/07 03:20:59;;;;;;;15.27;8.23;;;;;;;;;;5010672;28;20190;-89
2023/10/07 03:23:32;;;;;;;8.93;6.25;;;;;;;;;;4993856;28;20202;-89
2023/10/07 03:26:08;;;;;;;12.57;7.45;;;;;;;;;;4992646;28;20222;-89
2023/10/07 03:28:51;;;;;;;16.67;8.85;;;;;;;;;;4993339;28;20222;-88
2023/10/07 03:31:21;;;;;;;12.52;7.07;;;;;;;;;;5010693;28;20238;-89
2023/10/07 03:33:52;;;;;;;12.02;8.77;;;;;;;;;;4994300;28;20237;-89
2023/10/07 03:36:31;;;;;;;15.52;8.25;;;;;;;;;;4994441;28;20205;-89
2023/10/07 03:39:16;;;;;;;12.77;7.05;;;;;;;;;;5012416;28;20226;-89
2023/10/07 03:41:47;;;;;;;15.90;8.30;;;;;;;;;;4999503;28;20195;-89
2023/10/07 03:44:17;;;;;;;12.38;7.38;;;;;;;;;;5001095;28;20226;-88
2023/10/07 03:46:47;;;;;;;17.70;8.40;;;;;;;;;;5000006;28;20202;-89
2023/10/07 03:49:16;;;;;;;14.38;7.55;;;;;;;;;;5011688;28;20241;-89
2023/10/07 03:51:45;;;;;;;16.10;8.82;;;;;;;;;;4994896;28;20222;-88
2023/10/07 03:54:15;;;;;;;13.73;7.82;;;;;;;;;;4994384;28;20234;-88
2023/10/07 03:56:49;;;;;;;14.25;8.27;;;;;;;;;;4977992;28;20210;-89
2023/10/07 03:59:20;;;;;;;14.10;8.40;;;;;;;;;;4978773;28;20210;-89
2023/10/07 04:01:53;;;;;;;17.60;7.47;;;;;;;;;;4991176;28;20274;-89
2023/10/07 04:04:23;;;;;;;13.60;7.30;;;;;;;;;;4991831;28;20253;-89
2023/10/07 04:06:52;;;;;;;12.00;7.40;;;;;;;;;;4993166;28;20225;-89
2023/10/07 04:09:32;;;;;;;16.63;8.48;;;;;;;;;;4993631;28;20289;-88
2023/10/07 04:12:01;;;;;;;15.70;8.60;;;;;;;;;;4993286;28;20193;-89
2023/10/07 04:14:35;;;;;;;13.18;8.30;;;;;;;;;;4992953;28;20658;-89
2023/10/07 04:17:11;;;;;;;14.88;8.40;;;;;;;;;;4993005;28;20214;-89
2023/10/07 04:19:42;;;;;;;13.77;7.95;;;;;;;;;;4993277;28;20300;-89
2023/10/07 04:22:10;;;;;;;16.13;7.93;;;;;;;;;;5009676;28;20222;-88
2023/10/07 04:24:45;;;;;;;10.10;7.18;;;;;;;;;;4995222;28;20241;-89
2023/10/07 04:27:20;;;;;;;18.77;7.53;;;;;;;;;;4994982;28;20228;-88
2023/10/07 04:29:51;;;;;;;13.65;7.35;;;;;;;;;;4980484;28;20219;-88
2023/10/07 04:32:22;;;;;;;12.52;7.47;;;;;;;;;;4978055;28;20222;-89
2023/10/07 04:35:07;;;;;;;13.55;7.97;;;;;;;;;;4996080;28;20615;-89
2023/10/07 04:37:52;;;;;;;14.30;8.00;;;;;;;;;;4997101;28;20214;-89
2023/10/07 04:40:53;;;;;;;13.38;8.18;;;;;;;;;;4997960;28;20214;-89
2023/10/07 04:43:36;;;;;;;14.27;9.30;;;;;;;;;;4996183;28;20245;-89
2023/10/07 04:46:21;;;;;;;15.65;8.98;;;;;;;;;;4981793;28;20286;-88
2023/10/07 04:48:55;;;;;;;17.33;9.45;;;;;;;;;;4982409;28;20198;-89
2023/10/07 04:51:46;;;;;;;20.95;9.88;;;;;;;;;;4981958;28;20210;-88
2023/10/07 04:54:20;;;;;;;14.77;7.90;;;;;;;;;;4998621;28;20241;-89
2023/10/07 04:56:53;;;;;;;14.52;8.18;;;;;;;;;;5015245;28;20221;-89
2023/10/07 04:59:21;;;;;;;14.43;8.98;;;;;;;;;;5014401;28;20261;-89
2023/10/07 05:02:01;;;;;;;18.40;9.00;;;;;;;;;;5014172;28;20228;-88
2023/10/07 05:04:32;;;;;;;14.05;8.05;;;;;;;;;;4996251;28;20256;-88
2023/10/07 05:07:02;;;;;;;13.07;8.60;;;;;;;;;;4981140;28;20245;-87
2023/10/07 05:09:32;;;;;;;15.35;8.43;;;;;;;;;;4997091;28;20674;-88
2023/10/07 05:12:01;;;;;;;14.75;7.65;;;;;;;;;;4996607;28;20234;-87
2023/10/07 05:14:29;;;;;;;11.68;8.40;;;;;;;;;;4997053;28;20237;-87
2023/10/07 05:16:58;;;;;;;16.33;7.60;;;;;;;;;;4996110;28;20213;-87
2023/10/07 05:19:28;;;;;;;15.57;8.55;;;;;;;;;;4992661;28;20297;-87
2023/10/07 05:22:14;;;;;;;22.23;8.30;;;;;;;;;;4993308;28;20231;-87
2023/10/07 05:24:46;;;;;;;14.23;8.18;;;;;;;;;;4961567;28;20218;-87
2023/10/07 05:27:15;;;;;;;14.82;8.27;;;;;;;;;;4993947;28;20216;-88
2023/10/07 05:29:45;;;;;;;14.55;8.00;;;;;;;;;;4978356;28;20226;-88
2023/10/07 05:32:16;;;;;;;13.93;8.52;;;;;;;;;;4978477;28;20238;-88
2023/10/07 05:34:46;;;;;;;16.23;8.77;;;;;;;;;;4978376;28;20247;-88
2023/10/07 05:37:17;;;;;;;17.05;8.57;;;;;;;;;;4977031;28;20219;-87
2023/10/07 05:39:46;;;;;;;16.08;7.90;;;;;;;;;;4994612;28;20253;-87
2023/10/07 05:42:14;;;;;;;16.30;8.10;;;;;;;;;;4974639;28;20254;-84
2023/10/07 05:44:43;;;;;;;14.52;7.32;;;;;;;;;;4986179;28;20247;-86
2023/10/07 05:47:12;;;;;;;12.25;7.95;;;;;;;;;;4969437;28;20699;-85
2023/10/07 05:49:42;;;;;;;13.60;7.65;;;;;;;;;;4986639;28;20259;-84
2023/10/07 05:52:10;;;;;;;13.68;7.78;;;;;;;;;;4969042;28;20387;-85
2023/10/07 05:54:38;;;;;;;16.02;9.20;;;;;;;;;;4977703;28;20254;-84
2023/10/07 05:57:08;;;;;;;15.23;7.97;;;;;;;;;;4989259;28;20290;-86
2023/10/07 05:59:37;;;;;;;15.13;8.57;;;;;;;;;;4987616;28;20733;-84
2023/10/07 06:02:12;;;;;;;13.15;7.68;;;;;;;;;;4986524;28;20262;-86
2023/10/07 06:04:44;;;;;;;14.50;8.80;;;;;;;;;;5003546;28;20333;-84
2023/10/07 06:07:13;;;;;;;17.13;10.07;;;;;;;;;;4992137;28;20233;-84
2023/10/07 06:09:44;;;;;;;13.77;7.95;;;;;;;;;;4991536;28;20210;-84
2023/10/07 06:12:12;;;;;;;13.80;8.80;;;;;;;;;;4992303;28;20238;-84
2023/10/07 06:14:40;;;;;;;13.38;8.00;;;;;;;;;;4988219;28;20235;-84
2023/10/07 06:17:11;;;;;;;12.60;7.63;;;;;;;;;;4986029;28;20289;-84
2023/10/07 06:19:40;;;;;;;14.10;7.35;;;;;;;;;;4985322;28;20306;-84
2023/10/07 06:22:12;;;;;;;14.43;7.88;;;;;;;;;;4968555;28;20262;-84
2023/10/07 06:24:41;;;;;;;10.95;6.90;;;;;;;;;;4977716;28;20266;-85
2023/10/07 06:27:12;;;;;;;12.85;7.18;;;;;;;;;;4989614;28;20294;-85
2023/10/07 06:29:43;;;;;;;17.52;8.30;;;;;;;;;;5002141;28;20274;-84
2023/10/07 06:32:23;;;;;;;16.73;8.35;;;;;;;;;;4991746;28;20258;-85
2023/10/07 06:34:55;;;;;;;14.10;8.13;;;;;;;;;;5000915;28;20242;-86
2023/10/07 06:37:28;;;;;;;14.15;8.15;;;;;;;;;;4996395;28;20222;-84
2023/10/07 06:40:00;;;;;;;13.98;7.97;;;;;;;;;;4989619;28;20245;-84
2023/10/07 06:42:28;;;;;;;14.75;9.05;;;;;;;;;;4995333;28;20258;-84
2023/10/07 06:45:02;;;;;;;12.25;8.45;;;;;;;;;;4964941;28;20285;-86
2023/10/07 06:47:32;;;;;;;11.63;7.68;;;;;;;;;;4984375;28;20279;-84
2023/10/07 06:50:02;;;;;;;12.57;7.70;;;;;;;;;;4975832;28;20423;-86
2023/10/07 06:52:33;;;;;;;13.75;8.40;;;;;;;;;;4974845;28;20727;-83
2023/10/07 06:55:02;;;;;;;14.05;7.00;;;;;;;;;;4982063;28;20200;-84
2023/10/07 06:57:34;;;;;;;11.70;6.57;;;;;;;;;;5012368;28;20620;-83
2023/10/07 07:00:09;;;;;;;12.15;7.97;;;;;;;;;;4966103;28;20491;-85
2023/10/07 07:02:40;;;;;;;10.77;7.22;;;;;;;;;;4998864;28;20340;-83
2023/10/07 07:05:15;;;;;;;10.02;6.25;;;;;;;;;;4975646;28;20307;-84
2023/10/07 07:07:45;;;;;;;10.18;6.78;;;;;;;;;;4970164;28;20670;-82
2023/10/07 07:10:16;;;;;;;12.48;7.03;;;;;;;;;;4971204;28;20195;-84
2023/10/07 07:12:45;;;;;;;13.82;6.38;;;;;;;;;;4978897;28;20257;-82
2023/10/07 07:15:26;;;;;;;8.13;6.33;;;;;;;;;;4989027;28;20202;-84
2023/10/07 07:18:03;;;;;;;10.57;7.00;;;;;;;;;;4980232;28;20696;-84
2023/10/07 07:20:48;;;;;;;11.57;6.87;;;;;;;;;;4962821;28;20645;-82
2023/10/07 07:23:20;;;;;;;12.63;6.70;;;;;;;;;;4970459;28;20630;-84
2023/10/07 07:26:03;;;;;;;16.83;6.40;;;;;;;;;;4999224;28;20283;-82
2023/10/07 07:28:30;;;;;;;12.63;6.40;;;;;;;;;;4979896;28;20642;-82
2023/10/07 07:30:59;;;;;;;8.60;6.00;;;;;;;;;;4996181;28;20626;-81
2023/10/07 07:33:34;;;;;;;13.53;5.77;;;;;;;;;;4974231;28;20622;-81
2023/10/07 07:36:09;;;;;;;9.13;5.80;;;;;;;;;;4997770;28;20696;-82
2023/10/07 07:38:44;;;;;;;9.40;6.33;;;;;;;;;;4995716;28;20696;-82
2023/10/07 07:41:26;;;;;;;16.60;6.47;;;;;;;;;;4960613;28;20661;-82
2023/10/07 07:43:58;;;;;;;9.67;5.77;;;;;;;;;;4994865;28;20653;-82
2023/10/07 07:46:29;;;;;;;9.20;5.27;;;;;;;;;;4994994;28;21033;-82
2023/10/07 07:49:05;;;;;;;9.60;4.93;;;;;;;;;;4996096;28;20752;-83
2023/10/07 07:51:40;;;;;;;6.40;5.10;;;;;;;;;;4978704;28;20678;-83
2023/10/07 07:54:10;;;;;;;8.67;6.00;;;;;;;;;;4959752;28;20637;-83
2023/10/07 07:56:42;;;;;;;10.80;5.40;;;;;;;;;;4979937;28;21044;-82
2023/10/07 07:59:14;;;;;;;8.90;5.53;;;;;;;;;;4988272;28;20674;-82
2023/10/07 08:01:45;;;;;;;8.93;5.40;;;;;;;;;;4993119;28;20649;-85
2023/10/07 08:04:18;;;;;;;13.60;6.10;;;;;;;;;;4992700;28;20642;-84
2023/10/07 08:06:50;;;;;;;10.90;5.93;;;;;;;;;;5003299;28;20685;-85
2023/10/07 08:09:21;;;;;;;8.07;4.43;;;;;;;;;;4992675;28;20634;-84
2023/10/07 08:11:51;;;;;;;6.60;4.63;;;;;;;;;;4996762;28;20566;-84
2023/10/07 08:14:22;;;;;;;7.13;5.40;;;;;;;;;;4995975;28;20634;-84
2023/10/07 08:16:53;;;;;;;10.83;6.23;;;;;;;;;;4996831;28;20602;-84
2023/10/07 08:19:23;;;;;;;7.47;5.90;;;;;;;;;;4981991;28;20618;-83
2023/10/07 08:21:53;;;;;;;9.37;5.67;;;;;;;;;;5026102;23;20780;-64
2023/10/07 08:24:26;;;;;;;11.63;6.77;;;;;;;;;;5011146;28;20600;-64
2023/10/07 08:26:59;;;;;;;11.80;6.20;;;;;;;;;;4994003;28;20589;-65
2023/10/07 08:29:34;;;;;;;14.27;5.47;;;;;;;;;;5005539;28;20618;-65
2023/10/07 08:32:10;;;;;;;9.63;5.83;;;;;;;;;;5011300;28;20581;-65
2023/10/07 08:34:39;;;;;;;9.33;6.13;;;;;;;;;;5010559;28;21000;-65
2023/10/07 08:37:14;;;;;;;7.77;5.57;;;;;;;;;;5011155;28;20679;-65
2023/10/07 08:39:45;;;;;;;10.17;6.40;;;;;;;;;;5001953;28;20616;-65
2023/10/07 08:42:17;;;;;;;8.73;5.60;;;;;;;;;;5013324;28;20609;-65
2023/10/07 08:44:57;;;;;;;14.10;5.73;;;;;;;;;;4992346;28;20657;-65
2023/10/07 08:47:27;;;;;;;12.33;7.80;;;;;;;;;;4991829;28;21242;-64
2023/10/07 08:49:56;;;;;;;7.73;5.63;;;;;;;;;;4975202;28;20616;-65
2023/10/07 08:52:29;;;;;;;19.00;7.23;;;;;;;;;;4992022;28;20614;-65
2023/10/07 08:54:59;;;;;;;10.13;6.67;;;;;;;;;;4991217;28;20626;-65
2023/10/07 08:57:28;;;;;;;8.23;6.20;;;;;;;;;;4992280;28;20618;-65
2023/10/07 08:59:59;;;;;;;9.07;5.77;;;;;;;;;;4975178;28;20625;-65
2023/10/07 09:02:30;;;;;;;8.23;5.90;;;;;;;;;;4973085;28;20644;-65
2023/10/07 09:04:58;;;;;;;7.50;6.30;;;;;;;;;;4973892;28;20643;-65
2023/10/07 09:07:32;;;;;;;7.83;5.93;;;;;;;;;;4992322;28;21171;-65
2023/10/07 09:10:14;;;;;;;8.07;6.27;;;;;;;;;;4994772;28;20592;-65
2023/10/07 09:12:46;;;;;;;11.90;6.90;;;;;;;;;;4996097;28;20589;-65
2023/10/07 09:15:25;;;;;;;8.10;6.70;;;;;;;;;;4996858;28;20796;-65
2023/10/07 09:18:01;;;;;;;10.40;7.93;;;;;;;;;;4992235;28;20606;-65
2023/10/07 09:20:31;;;;;;;23.07;15.10;;;;;;;;;;4976614;28;20629;-65
2023/10/07 09:23:06;;;;;;;10.10;7.40;;;;;;;;;;4975568;28;20741;-65
2023/10/07 09:25:36;;;;;;;16.30;10.20;;;;;;;;;;4976288;28;21153;-65
2023/10/07 09:28:07;;;;;;;9.53;7.00;;;;;;;;;;4975980;28;21004;-65
2023/10/07 09:30:44;;;;;;;12.30;7.13;;;;;;;;;;4984731;28;20651;-65
2023/10/07 09:33:18;;;;;;;7.70;6.43;;;;;;;;;;4985908;28;20821;-65
2023/10/07 09:36:00;;;;;;;9.20;7.90;;;;;;;;;;4994317;28;20190;-65
2023/10/07 09:38:33;;;;;;;14.33;7.40;;;;;;;;;;4993763;28;20610;-65
2023/10/07 09:41:24;;;;;;;8.33;7.47;;;;;;;;;;4994405;28;20663;-65
2023/10/07 09:43:56;;;;;;;8.90;7.30;;;;;;;;;;4976497;28;20653;-65
2023/10/07 09:46:25;;;;;;;8.90;8.03;;;;;;;;;;4994259;28;20594;-65
2023/10/07 09:48:54;;;;;;;7.07;6.40;;;;;;;;;;4993493;28;20629;-65
2023/10/07 09:51:28;;;;;;;10.00;7.13;;;;;;;;;;4994644;28;20617;-64
2023/10/07 09:54:05;;;;;;;8.07;7.27;;;;;;;;;;4993563;28;20612;-65
2023/10/07 09:56:43;;;;;;;7.97;7.23;;;;;;;;;;4994303;28;20982;-65
2023/10/07 09:59:18;;;;;;;8.70;7.03;;;;;;;;;;4993915;28;20956;-65
2023/10/07 10:02:05;;;;;;;8.77;7.10;;;;;;;;;;4993123;28;21007;-64
2023/10/07 10:04:43;;;;;;;12.67;7.43;;;;;;;;;;4982378;28;20687;-65
2023/10/07 10:07:21;;;;;;;12.70;7.00;;;;;;;;;;4994054;28;20607;-64
2023/10/07 10:10:05;;;;;;;7.93;7.00;;;;;;;;;;4975986;28;20596;-66
2023/10/07 10:12:56;;;;;;;7.87;7.27;;;;;;;;;;4976537;28;21135;-65
2023/10/07 10:15:55;;;;;;;10.63;7.83;;;;;;;;;;4992632;28;20618;-65
2023/10/07 10:21:15;;;;;;;10.40;7.77;;;;;;;;;;4981745;28;20993;-65
2023/10/07 10:23:44;;;;;;;6.80;6.20;;;;;;;;;;4993543;28;20609;-65
2023/10/07 10:26:22;;;;;;;9.60;7.10;;;;;;;;;;4992996;28;20628;-65
2023/10/07 10:29:03;;;;;;;8.60;6.37;;;;;;;;;;4993764;28;20593;-66
2023/10/07 10:31:35;;;;;;;9.20;7.17;;;;;;;;;;4993542;28;20594;-65
2023/10/07 10:34:05;;;;;;;10.00;7.97;;;;;;;;;;4976506;28;20970;-65
2023/10/07 10:36:41;;;;;;;11.13;8.30;;;;;;;;;;4993423;28;20605;-65
2023/10/07 10:39:18;;;;;;;11.60;7.90;;;;;;;;;;4975445;28;20947;-65
2023/10/07 10:41:47;;;;;;;8.53;7.27;;;;;;;;;;4992185;28;20631;-65
2023/10/07 10:44:17;;;;;;;7.67;6.87;;;;;;;;;;4993140;28;20645;-65
2023/10/07 10:46:48;;;;;;;10.03;7.00;;;;;;;;;;4993547;28;20622;-65
2023/10/07 10:49:17;;;;;;;11.43;8.10;;;;;;;;;;4976079;28;20598;-66
2023/10/07 10:51:50;;;;;;;9.33;8.30;;;;;;;;;;4993519;28;20614;-65
2023/10/07 10:54:19;;;;;;;8.83;7.93;;;;;;;;;;4993293;28;20681;-65
2023/10/07 10:56:51;;;;;;;11.10;7.80;;;;;;;;;;4992614;28;20618;-65
2023/10/07 10:59:22;;;;;;;8.50;7.57;;;;;;;;;;4992301;28;20578;-66
2023/10/07 11:01:51;;;;;;;10.20;8.07;;;;;;;;;;4991036;28;20711;-67
2023/10/07 11:04:22;;;;;;;11.53;7.93;;;;;;;;;;4991449;28;20938;-65
2023/10/07 11:06:51;;;;;;;10.03;8.07;;;;;;;;;;4992368;28;20651;-65
2023/10/07 11:09:25;;;;;;;12.13;7.63;;;;;;;;;;4992912;28;20614;-65
2023/10/07 11:11:55;;;;;;;9.93;7.43;;;;;;;;;;4992481;28;21155;-65
2023/10/07 11:14:26;;;;;;;6.77;6.27;;;;;;;;;;4992608;28;20617;-65
2023/10/07 11:17:00;;;;;;;8.20;7.40;;;;;;;;;;4992930;28;20586;-65
2023/10/07 11:19:30;;;;;;;14.30;8.17;;;;;;;;;;4979046;28;20617;-65
2023/10/07 11:21:58;;;;;;;8.97;7.23;;;;;;;;;;4975330;28;20675;-65
2023/10/07 11:24:27;;;;;;;8.50;7.43;;;;;;;;;;4992237;28;21044;-64
2023/10/07 11:26:59;;;;;;;9.53;7.90;;;;;;;;;;4993194;28;20602;-64
2023/10/07 11:29:30;;;;;;;9.67;7.43;;;;;;;;;;4992077;28;20955;-64
2023/10/07 11:31:59;;;;;;;14.30;8.27;;;;;;;;;;4975659;28;20580;-65
2023/10/07 11:34:40;;;;;;;10.80;8.57;;;;;;;;;;4990934;28;20613;-64
2023/10/07 11:37:09;;;;;;;7.90;7.20;;;;;;;;;;4992765;28;20594;-65
2023/10/07 11:39:43;;;;;;;10.10;9.10;;;;;;;;;;4991791;28;21144;-65
2023/10/07 11:42:12;;;;;;;10.67;8.50;;;;;;;;;;4975026;28;20639;-65
2023/10/07 11:44:42;;;;;;;10.50;7.40;;;;;;;;;;4992401;28;20640;-65
2023/10/07 11:47:11;;;;;;;9.30;8.50;;;;;;;;;;4991802;28;20617;-65
2023/10/07 11:49:40;;;;;;;10.13;8.63;;;;;;;;;;4992439;28;20616;-65
2023/10/07 11:52:08;;;;;;;8.63;7.80;;;;;;;;;;4992181;28;20917;-65
2023/10/07 11:54:38;;;;;;;9.77;7.87;;;;;;;;;;4992575;28;20614;-66
2023/10/07 11:57:06;;;;;;;11.33;7.23;;;;;;;;;;4958802;28;20663;-66
2023/10/07 11:59:35;;;;;;;9.43;8.47;;;;;;;;;;4992156;28;20683;-64
2023/10/07 12:02:09;;;;;;;9.50;7.33;;;;;;;;;;4991331;28;20645;-65
2023/10/07 12:04:41;;;;;;;12.20;9.20;;;;;;;;;;4990503;28;20651;-65
2023/10/07 12:07:13;;;;;;;12.30;8.67;;;;;;;;;;4991979;28;20594;-65
2023/10/07 12:09:41;;;;;;;10.17;9.17;;;;;;;;;;4991411;28;20657;-65
2023/10/07 12:12:11;;;;;;;11.07;8.53;;;;;;;;;;4975144;28;20660;-65
2023/10/07 12:14:40;;;;;;;9.63;8.80;;;;;;;;;;4991463;28;20618;-65
2023/10/07 12:17:11;;;;;;;10.23;9.30;;;;;;;;;;4992236;28;20613;-65
2023/10/07 12:19:41;;;;;;;14.73;10.37;;;;;;;;;;4958004;28;20912;-65
2023/10/07 12:22:13;;;;;;;11.40;9.70;;;;;;;;;;4972774;28;21094;-65
2023/10/07 12:24:42;;;;;;;10.57;9.67;;;;;;;;;;4974182;28;20633;-65
2023/10/07 12:27:11;;;;;;;8.73;8.10;;;;;;;;;;4992041;28;20626;-65
2023/10/07 12:29:40;;;;;;;9.60;8.60;;;;;;;;;;4991876;28;20621;-66
2023/10/07 12:32:09;;;;;;;17.43;9.23;;;;;;;;;;4991927;28;20626;-66
2023/10/07 12:34:40;;;;;;;11.10;10.10;;;;;;;;;;4992120;28;20606;-63
2023/10/07 12:37:09;;;;;;;10.60;9.60;;;;;;;;;;4991105;28;20676;-64
2023/10/07 12:39:40;;;;;;;10.40;9.60;;;;;;;;;;4989243;28;20649;-65
2023/10/07 12:42:08;;;;;;;10.87;9.90;;;;;;;;;;4972529;28;20633;-65
2023/10/07 12:44:36;;;;;;;14.37;11.63;;;;;;;;;;4990006;28;20669;-65
2023/10/07 12:47:08;;;;;;;9.93;8.93;;;;;;;;;;4983444;28;20652;-65
2023/10/07 12:49:40;;;;;;;10.50;9.60;;;;;;;;;;4994439;28;20625;-66
2023/10/07 12:52:09;;;;;;;9.40;8.70;;;;;;;;;;4989281;28;20607;-64
2023/10/07 12:54:37;;;;;;;10.87;9.87;;;;;;;;;;4978414;28;20634;-66
2023/10/07 12:57:07;;;;;;;9.73;8.87;;;;;;;;;;4990888;28;20653;-65
2023/10/07 12:59:37;;;;;;;9.80;8.80;;;;;;;;;;4995708;28;20622;-65
2023/10/07 13:02:09;;;;;;;9.53;8.73;;;;;;;;;;4994121;28;20641;-64
2023/10/07 13:04:38;;;;;;;10.40;9.50;;;;;;;;;;4965614;28;21160;-65
2023/10/07 13:07:10;;;;;;;9.37;8.57;;;;;;;;;;4979331;28;20637;-66
2023/10/07 13:09:42;;;;;;;9.67;8.97;;;;;;;;;;4960032;28;20598;-65
2023/10/07 13:12:15;;;;;;;10.20;9.37;;;;;;;;;;4995268;28;20668;-65
2023/10/07 13:14:45;;;;;;;9.90;9.10;;;;;;;;;;4995055;28;20602;-65
2023/10/07 13:17:14;;;;;;;12.80;10.10;;;;;;;;;;4995229;28;20577;-65
2023/10/07 13:19:48;;;;;;;10.07;9.33;;;;;;;;;;4989514;28;21070;-65
2023/10/07 13:22:18;;;;;;;13.10;10.50;;;;;;;;;;4994539;28;20683;-65
2023/10/07 13:24:46;;;;;;;21.70;11.47;;;;;;;;;;4978243;28;20726;-65
2023/10/07 13:27:16;;;;;;;10.80;9.90;;;;;;;;;;4989408;28;20636;-65
2023/10/07 13:29:44;;;;;;;10.80;9.90;;;;;;;;;;4987721;28;20619;-65
2023/10/07 13:32:12;;;;;;;10.73;9.83;;;;;;;;;;4985397;28;20982;-65
2023/10/07 13:34:40;;;;;;;11.27;10.47;;;;;;;;;;4993572;28;20718;-65
2023/10/07 13:37:11;;;;;;;10.43;9.77;;;;;;;;;;4992974;28;20610;-64
2023/10/07 13:39:40;;;;;;;12.20;11.00;;;;;;;;;;4995165;28;20612;-65
2023/10/07 13:42:11;;;;;;;12.63;10.00;;;;;;;;;;4976792;28;20657;-65
2023/10/07 13:44:40;;;;;;;10.97;9.97;;;;;;;;;;4986377;28;20661;-65
2023/10/07 13:47:08;;;;;;;10.30;9.60;;;;;;;;;;4974894;28;20969;-65
2023/10/07 13:49:38;;;;;;;10.70;10.00;;;;;;;;;;4982349;28;20633;-65
2023/10/07 13:52:09;;;;;;;11.67;10.53;;;;;;;;;;4959608;28;20627;-65
2023/10/07 13:54:47;;;;;;;11.30;10.40;;;;;;;;;;4957313;28;20601;-65
2023/10/07 13:57:21;;;;;;;10.67;9.87;;;;;;;;;;4977148;28;20614;-64
2023/10/07 13:59:49;;;;;;;10.73;10.00;;;;;;;;;;4982034;28;20616;-64
2023/10/07 14:02:19;;;;;;;11.90;11.17;;;;;;;;;;4976188;28;20653;-65
2023/10/07 14:04:52;;;;;;;11.23;10.53;;;;;;;;;;4992776;28;20585;-64
2023/10/07 14:07:20;;;;;;;12.20;11.30;;;;;;;;;;4993700;28;20597;-65
2023/10/07 14:09:50;;;;;;;12.43;11.60;;;;;;;;;;4986159;28;20629;-65
2023/10/07 14:12:18;;;;;;;11.77;10.70;;;;;;;;;;4989723;28;21075;-64
2023/10/07 14:14:52;;;;;;;12.17;11.33;;;;;;;;;;4990052;28;20640;-64
2023/10/07 14:17:20;;;;;;;12.00;11.10;;;;;;;;;;4993633;28;20626;-65
2023/10/07 14:19:48;;;;;;;11.97;10.87;;;;;;;;;;4985097;28;20622;-66
2023/10/07 14:22:17;;;;;;;11.13;10.53;;;;;;;;;;4974901;28;20666;-65
2023/10/07 14:24:47;;;;;;;13.03;11.90;;;;;;;;;;4974428;28;20726;-65
2023/10/07 14:27:17;;;;;;;12.53;11.63;;;;;;;;;;4974170;28;20972;-65
2023/10/07 14:29:46;;;;;;;11.90;11.10;;;;;;;;;;4974082;28;20615;-65
2023/10/07 14:32:14;;;;;;;12.87;11.93;;;;;;;;;;4975369;28;20634;-65
2023/10/07 14:34:43;;;;;;;13.80;12.57;;;;;;;;;;4980820;28;20630;-65
2023/10/07 14:37:11;;;;;;;12.40;11.47;;;;;;;;;;4976402;28;20637;-64
2023/10/07 14:39:40;;;;;;;12.80;11.90;;;;;;;;;;4984392;28;21280;-65
2023/10/07 14:42:09;;;;;;;12.57;11.77;;;;;;;;;;4974010;28;21101;-65
2023/10/07 14:44:38;;;;;;;12.70;11.90;;;;;;;;;;4986552;28;21043;-65
2023/10/07 14:47:06;;;;;;;12.00;11.30;;;;;;;;;;4993251;28;20968;-65
2023/10/07 14:49:36;;;;;;;12.57;11.77;;;;;;;;;;4993500;28;20621;-64
2023/10/07 14:52:06;;;;;;;12.90;12.00;;;;;;;;;;4993446;28;20629;-65
2023/10/07 14:54:34;;;;;;;13.33;12.30;;;;;;;;;;4979512;28;20665;-65
2023/10/07 14:57:04;;;;;;;13.13;12.10;;;;;;;;;;4967774;28;20970;-65
2023/10/07 14:59:33;;;;;;;12.23;11.33;;;;;;;;;;4956772;28;20618;-65
2023/10/07 15:02:03;;;;;;;11.07;10.47;;;;;;;;;;4984006;28;20630;-65
2023/10/07 15:04:31;;;;;;;12.20;11.40;;;;;;;;;;4965260;28;20666;-64